Time;durP1;ratioP1;P1;durP2;ratioP2;P2;SDS_P1;SDS_P2;PMS_P1;PMS_P2;Temp;Humidity;BMP_temperature;BMP_pressure;BME280_temperature;BME280_humidity;BME280_pressure;Samples;Min_cycle;Max_cycle;Signal;HPM_P1;HPM_P2
2021/05/27 00:01:48;;;;;;;1.37;1.27;;;9.60;99.90;;;;;;5027107;28;20632;-90
2021/05/27 00:04:15;;;;;;;1.10;1.00;;;9.60;99.90;;;;;;5028129;28;20622;-90
2021/05/27 00:06:42;;;;;;;1.17;1.00;;;9.60;99.90;;;;;;5026205;28;20650;-90
2021/05/27 00:09:08;;;;;;;2.47;2.17;;;9.60;99.90;;;;;;5024817;28;20637;-90
2021/05/27 00:11:35;;;;;;;1.10;1.00;;;9.60;99.90;;;;;;5024323;28;20672;-89
2021/05/27 00:14:01;;;;;;;1.87;1.37;;;9.60;99.90;;;;;;5024516;28;21405;-89
2021/05/27 00:16:31;;;;;;;1.40;1.30;;;9.60;99.90;;;;;;5024939;28;20641;-90
2021/05/27 00:18:58;;;;;;;2.30;1.20;;;9.60;99.90;;;;;;5026853;28;20640;-90
2021/05/27 00:21:26;;;;;;;2.10;1.17;;;9.60;99.90;;;;;;5026279;28;20646;-89
2021/05/27 00:23:52;;;;;;;1.60;1.30;;;9.60;99.90;;;;;;5028026;28;20629;-89
2021/05/27 00:26:18;;;;;;;2.30;1.37;;;9.60;99.90;;;;;;5025519;28;21238;-90
2021/05/27 00:28:45;;;;;;;2.93;1.60;;;9.50;99.90;;;;;;5025660;28;20648;-88
2021/05/27 00:31:12;;;;;;;1.57;1.23;;;9.50;99.90;;;;;;5021948;28;20653;-89
2021/05/27 00:33:38;;;;;;;1.27;1.00;;;9.50;99.90;;;;;;5023957;28;20736;-90
2021/05/27 00:36:06;;;;;;;1.50;1.20;;;9.50;99.90;;;;;;5027254;28;21502;-90
2021/05/27 00:38:32;;;;;;;1.17;0.93;;;9.50;99.90;;;;;;5027363;28;20681;-90
2021/05/27 00:40:58;;;;;;;1.87;0.83;;;9.60;99.90;;;;;;5026499;28;20705;-90
2021/05/27 00:43:27;;;;;;;1.43;0.90;;;9.60;99.90;;;;;;5021384;28;21023;-90
2021/05/27 00:45:53;;;;;;;1.23;1.13;;;9.70;99.90;;;;;;5025535;28;20635;-89
2021/05/27 00:51:18;;;;;;;1.10;1.00;;;9.60;99.90;;;;;;5027389;28;20799;-90
2021/05/27 00:53:44;;;;;;;1.20;1.10;;;9.60;99.90;;;;;;5023125;28;20658;-90
2021/05/27 00:56:11;;;;;;;0.90;0.90;;;9.70;99.90;;;;;;5024936;28;20630;-90
2021/05/27 00:58:37;;;;;;;2.80;1.33;;;9.70;99.90;;;;;;5024574;28;20627;-90
2021/05/27 01:01:04;;;;;;;1.10;0.90;;;9.70;99.90;;;;;;5029425;28;20654;-90
2021/05/27 01:03:31;;;;;;;1.40;1.23;;;9.70;99.90;;;;;;5024351;28;20631;-90
2021/05/27 01:05:57;;;;;;;1.73;1.40;;;9.70;99.90;;;;;;5028399;28;20627;-89
2021/05/27 01:08:27;;;;;;;1.30;1.03;;;9.70;99.90;;;;;;5024868;28;20623;-89
2021/05/27 01:10:53;;;;;;;1.63;1.10;;;9.70;99.90;;;;;;5024260;28;20659;-90
2021/05/27 01:13:20;;;;;;;1.83;1.00;;;9.60;99.90;;;;;;5024151;28;21415;-91
2021/05/27 01:15:47;;;;;;;1.27;1.17;;;9.60;99.90;;;;;;5026741;28;20655;-92
2021/05/27 01:18:16;;;;;;;1.37;1.20;;;9.70;99.90;;;;;;5028280;28;20824;-90
2021/05/27 01:20:45;;;;;;;1.40;1.30;;;9.70;99.90;;;;;;5026872;28;20649;-92
2021/05/27 01:23:13;;;;;;;2.13;1.10;;;9.80;99.90;;;;;;5025608;28;20619;-92
2021/05/27 01:25:40;;;;;;;1.23;0.97;;;9.70;99.90;;;;;;5023130;28;21034;-90
2021/05/27 01:28:09;;;;;;;1.33;1.20;;;9.70;99.90;;;;;;5030267;28;20607;-91
2021/05/27 01:30:35;;;;;;;3.00;1.30;;;9.70;99.90;;;;;;5030955;28;20643;-92
2021/05/27 01:33:02;;;;;;;2.23;1.50;;;9.60;99.90;;;;;;5037138;28;20655;-90
2021/05/27 01:35:30;;;;;;;1.20;1.10;;;9.60;99.90;;;;;;5041342;28;20666;-92
2021/05/27 01:37:57;;;;;;;0.90;0.90;;;9.60;99.90;;;;;;5027790;28;20642;-92
2021/05/27 01:40:26;;;;;;;1.97;1.13;;;9.60;99.90;;;;;;5032413;28;20659;-91
2021/05/27 01:42:55;;;;;;;1.40;1.23;;;9.60;99.90;;;;;;5030586;28;20633;-91
2021/05/27 01:45:21;;;;;;;3.03;1.40;;;9.50;99.90;;;;;;5030965;28;20638;-92
2021/05/27 01:47:48;;;;;;;4.87;1.43;;;9.50;99.90;;;;;;5038471;28;20630;-90
2021/05/27 01:50:20;;;;;;;2.13;1.00;;;9.50;99.90;;;;;;5050686;28;20641;-90
2021/05/27 01:52:59;;;;;;;1.63;1.00;;;9.70;99.90;;;;;;5048093;28;20666;-91
2021/05/27 01:55:27;;;;;;;1.90;1.20;;;9.70;99.90;;;;;;5044642;28;20761;-91
2021/05/27 01:57:55;;;;;;;1.20;1.10;;;9.80;99.90;;;;;;5039331;28;20634;-91
2021/05/27 02:00:23;;;;;;;1.50;1.40;;;9.80;99.90;;;;;;5028469;28;21023;-90
2021/05/27 02:02:55;;;;;;;1.20;1.10;;;9.80;99.90;;;;;;5025409;28;20697;-90
2021/05/27 02:05:22;;;;;;;1.87;1.60;;;9.80;99.90;;;;;;5027019;28;21273;-91
2021/05/27 02:07:48;;;;;;;2.20;1.10;;;9.70;99.90;;;;;;5027779;28;20623;-91
2021/05/27 02:10:21;;;;;;;1.10;1.00;;;9.70;99.90;;;;;;5025515;28;20662;-91
2021/05/27 02:12:48;;;;;;;2.07;1.17;;;9.80;99.90;;;;;;5025985;28;20655;-88
2021/05/27 02:15:15;;;;;;;1.93;1.50;;;9.70;99.90;;;;;;5024059;28;20634;-89
2021/05/27 02:17:42;;;;;;;1.57;1.27;;;9.70;99.90;;;;;;5030085;28;20619;-89
2021/05/27 02:20:10;;;;;;;2.83;1.27;;;9.70;99.90;;;;;;5027533;28;20646;-90
2021/05/27 02:22:37;;;;;;;1.60;1.40;;;9.70;99.90;;;;;;5022873;28;20662;-90
2021/05/27 02:25:04;;;;;;;1.30;1.20;;;9.70;99.90;;;;;;5026052;28;20712;-93
2021/05/27 02:27:30;;;;;;;1.30;1.20;;;9.70;99.90;;;;;;5027520;28;20637;-91
2021/05/27 02:29:58;;;;;;;1.60;1.43;;;9.60;99.90;;;;;;5022797;28;21258;-91
2021/05/27 02:32:24;;;;;;;1.50;1.40;;;9.70;99.90;;;;;;5023126;28;20708;-91
2021/05/27 02:34:51;;;;;;;1.43;1.33;;;9.60;99.90;;;;;;5025796;28;20622;-89
2021/05/27 02:37:17;;;;;;;1.67;1.20;;;9.60;99.90;;;;;;5025061;28;20646;-90
2021/05/27 02:39:46;;;;;;;1.50;1.40;;;9.70;99.90;;;;;;5021708;28;20692;-91
2021/05/27 02:42:12;;;;;;;2.43;1.73;;;9.70;99.90;;;;;;5022549;28;20623;-91
2021/05/27 02:44:39;;;;;;;2.30;1.60;;;9.60;99.90;;;;;;5023177;28;20630;-89
2021/05/27 02:47:06;;;;;;;1.03;1.03;;;9.50;99.90;;;;;;5020467;28;20631;-90
2021/05/27 02:49:32;;;;;;;1.50;1.40;;;9.50;99.90;;;;;;5023953;28;20722;-89
2021/05/27 02:51:58;;;;;;;1.97;1.70;;;9.40;99.90;;;;;;5023946;28;20618;-92
2021/05/27 02:54:25;;;;;;;4.40;1.30;;;9.40;99.90;;;;;;5035697;28;20658;-90
2021/05/27 02:56:52;;;;;;;1.87;1.23;;;9.30;99.90;;;;;;5031389;28;20631;-89
2021/05/27 02:59:18;;;;;;;1.77;1.43;;;9.40;99.90;;;;;;5029555;28;20641;-91
2021/05/27 03:01:44;;;;;;;1.93;1.50;;;9.40;99.90;;;;;;5025339;28;20641;-90
2021/05/27 03:04:11;;;;;;;1.90;1.30;;;9.40;99.90;;;;;;5027465;28;20622;-95
2021/05/27 03:06:39;;;;;;;2.30;2.10;;;9.60;99.90;;;;;;5032820;28;20698;-94
2021/05/27 03:09:06;;;;;;;2.00;1.80;;;9.60;99.90;;;;;;5032996;28;20848;-94
2021/05/27 03:11:32;;;;;;;2.40;2.27;;;9.60;99.90;;;;;;5032274;28;20658;-95
2021/05/27 03:13:59;;;;;;;3.07;1.90;;;9.70;99.90;;;;;;5033569;28;20659;-94
2021/05/27 03:16:25;;;;;;;3.20;3.00;;;9.80;99.90;;;;;;5030422;28;21181;-94
2021/05/27 03:18:54;;;;;;;3.67;3.37;;;9.70;99.90;;;;;;5031654;28;20643;-93
2021/05/27 03:21:22;;;;;;;5.13;3.27;;;9.70;99.90;;;;;;5021426;28;20670;-94
2021/05/27 03:23:48;;;;;;;2.17;1.70;;;9.60;99.90;;;;;;5023391;28;20638;-92
2021/05/27 03:26:16;;;;;;;1.60;1.50;;;9.60;99.90;;;;;;5025406;28;20720;-93
2021/05/27 03:28:42;;;;;;;3.00;1.90;;;9.50;99.90;;;;;;5028971;28;20630;-94
2021/05/27 03:31:09;;;;;;;2.17;1.80;;;9.50;99.90;;;;;;5027499;28;20675;-93
2021/05/27 03:33:36;;;;;;;1.87;1.77;;;9.60;99.90;;;;;;5034345;28;21290;-93
2021/05/27 03:36:04;;;;;;;1.97;1.83;;;9.60;99.90;;;;;;5032589;28;21377;-92
2021/05/27 03:38:31;;;;;;;2.30;1.93;;;9.60;99.90;;;;;;5028491;28;20770;-94
2021/05/27 03:40:58;;;;;;;2.37;2.10;;;9.50;99.90;;;;;;5027764;28;20672;-93
2021/05/27 03:43:24;;;;;;;1.90;1.80;;;9.50;99.90;;;;;;5032912;28;20657;-93
2021/05/27 03:45:51;;;;;;;2.23;2.07;;;9.40;99.90;;;;;;5032248;28;20666;-93
2021/05/27 03:48:17;;;;;;;2.40;2.20;;;9.30;99.90;;;;;;5026463;28;20714;-93
2021/05/27 03:50:44;;;;;;;1.57;1.47;;;9.10;99.90;;;;;;5037285;28;20658;-92
2021/05/27 03:53:10;;;;;;;1.73;1.63;;;9.10;99.90;;;;;;5029314;28;20659;-93
2021/05/27 03:55:38;;;;;;;7.83;1.97;;;9.00;99.90;;;;;;5027694;28;20631;-94
2021/05/27 04:00:41;;;;;;;1.70;1.60;;;9.10;99.90;;;;;;5029694;28;20670;-91
2021/05/27 04:00:51;;;;;;;4.80;2.17;;;9.10;99.90;;;;;;5026370;28;21215;-92
2021/05/27 04:03:18;;;;;;;1.50;1.40;;;9.10;99.90;;;;;;5030394;28;20624;-93
2021/05/27 04:08:32;;;;;;;2.87;1.70;;;9.10;99.90;;;;;;5029290;28;20617;-93
2021/05/27 04:11:06;;;;;;;2.10;1.53;;;9.10;99.90;;;;;;5028021;28;21282;-94
2021/05/27 04:13:33;;;;;;;3.03;1.87;;;9.20;99.90;;;;;;5033167;28;20673;-94
2021/05/27 04:15:59;;;;;;;2.77;1.67;;;9.30;99.90;;;;;;5028490;28;20634;-94
2021/05/27 04:18:28;;;;;;;2.40;2.20;;;9.30;99.90;;;;;;5028338;28;20657;-93
2021/05/27 04:20:55;;;;;;;3.13;2.70;;;9.20;99.90;;;;;;5028364;28;20633;-92
2021/05/27 04:23:34;;;;;;;7.23;5.03;;;9.30;99.90;;;;;;5025582;28;20614;-93
2021/05/27 04:26:00;;;;;;;5.80;3.37;;;9.30;99.90;;;;;;5029065;28;20725;-93
2021/05/27 04:28:27;;;;;;;5.13;4.00;;;9.40;99.90;;;;;;5029251;28;20631;-92
2021/05/27 04:31:09;;;;;;;4.50;2.90;;;9.40;99.90;;;;;;5030318;28;20654;-93
2021/05/27 04:33:35;;;;;;;5.40;3.03;;;9.30;99.90;;;;;;5034208;28;20788;-94
2021/05/27 04:36:02;;;;;;;2.93;2.70;;;9.40;99.90;;;;;;5032547;28;20673;-92
2021/05/27 04:38:29;;;;;;;3.40;2.50;;;9.40;99.90;;;;;;5029602;28;20631;-92
2021/05/27 04:40:55;;;;;;;5.57;2.00;;;9.40;99.90;;;;;;5031865;28;20655;-92
2021/05/27 04:43:23;;;;;;;5.53;2.00;;;9.50;99.90;;;;;;5033702;28;20635;-92
2021/05/27 04:45:52;;;;;;;2.53;2.33;;;9.50;99.90;;;;;;5034222;28;20633;-91
2021/05/27 04:48:19;;;;;;;2.20;2.00;;;9.50;99.90;;;;;;5035173;28;20635;-92
2021/05/27 04:50:49;;;;;;;2.27;2.07;;;9.60;99.90;;;;;;5032906;28;20742;-92
2021/05/27 04:53:17;;;;;;;2.20;2.00;;;9.60;99.90;;;;;;5034405;28;20674;-91
2021/05/27 04:55:49;;;;;;;2.50;2.17;;;9.60;99.90;;;;;;5037194;28;20718;-93
2021/05/27 04:58:17;;;;;;;2.23;2.07;;;9.60;99.90;;;;;;5033491;28;20627;-94
2021/05/27 05:00:46;;;;;;;2.17;2.03;;;9.60;99.90;;;;;;5042338;28;20662;-92
2021/05/27 05:03:13;;;;;;;2.70;2.50;;;9.60;99.90;;;;;;5052046;28;20668;-93
2021/05/27 05:05:41;;;;;;;2.43;2.23;;;9.70;99.90;;;;;;5048899;28;20623;-92
2021/05/27 05:08:08;;;;;;;2.40;2.20;;;9.80;99.90;;;;;;5050309;28;20631;-93
2021/05/27 05:10:35;;;;;;;2.53;2.30;;;9.80;99.90;;;;;;5052642;28;20702;-92
2021/05/27 05:13:04;;;;;;;2.10;1.90;;;9.80;99.90;;;;;;5052532;28;20666;-93
2021/05/27 05:15:33;;;;;;;2.17;1.70;;;10.00;99.90;;;;;;5052373;28;20601;-93
2021/05/27 05:18:02;;;;;;;2.20;2.07;;;10.00;99.90;;;;;;5053948;28;20638;-94
2021/05/27 05:20:31;;;;;;;3.33;2.07;;;10.10;99.90;;;;;;5053385;28;20780;-93
2021/05/27 05:22:59;;;;;;;5.20;4.70;;;10.20;99.90;;;;;;5051479;28;20664;-94
2021/05/27 05:25:26;;;;;;;2.43;2.23;;;10.40;99.90;;;;;;5042765;28;20635;-92
2021/05/27 05:27:53;;;;;;;3.60;2.40;;;10.40;99.90;;;;;;5037500;28;21259;-92
2021/05/27 05:30:20;;;;;;;2.93;1.80;;;10.50;99.90;;;;;;5035928;28;20681;-92
2021/05/27 05:32:47;;;;;;;2.60;2.40;;;10.60;99.90;;;;;;5033392;28;20650;-93
2021/05/27 05:35:16;;;;;;;2.00;1.90;;;10.80;99.90;;;;;;5036915;28;20638;-92
2021/05/27 05:37:46;;;;;;;3.10;2.20;;;10.80;99.90;;;;;;5032929;28;20651;-88
2021/05/27 05:40:15;;;;;;;5.43;1.93;;;10.90;99.90;;;;;;5026707;28;20656;-88
2021/05/27 05:42:43;;;;;;;2.20;1.97;;;10.80;99.90;;;;;;5022861;28;21229;-88
2021/05/27 05:45:11;;;;;;;2.97;2.00;;;10.70;99.90;;;;;;5026748;28;20623;-89
2021/05/27 05:47:39;;;;;;;3.70;2.10;;;10.90;99.90;;;;;;5029668;28;20646;-89
2021/05/27 05:50:08;;;;;;;1.70;1.60;;;11.00;99.90;;;;;;5027153;28;20755;-88
2021/05/27 05:52:35;;;;;;;2.40;2.20;;;11.10;99.90;;;;;;5029854;28;20638;-89
2021/05/27 05:55:02;;;;;;;2.47;1.90;;;11.10;99.90;;;;;;5030530;28;20635;-89
2021/05/27 05:57:28;;;;;;;1.90;1.70;;;11.40;99.90;;;;;;5030162;28;20647;-89
2021/05/27 05:59:55;;;;;;;2.67;1.83;;;11.40;99.90;;;;;;5029400;28;21229;-89
2021/05/27 06:02:24;;;;;;;2.43;2.23;;;11.50;99.90;;;;;;5033681;28;20619;-88
2021/05/27 06:04:50;;;;;;;1.80;1.67;;;11.50;99.90;;;;;;5037609;28;20668;-90
2021/05/27 06:07:20;;;;;;;2.37;2.07;;;11.50;99.90;;;;;;5042547;28;20653;-89
2021/05/27 06:09:46;;;;;;;1.90;1.73;;;11.40;99.90;;;;;;5042154;28;20630;-90
2021/05/27 06:12:13;;;;;;;3.23;2.30;;;11.50;99.90;;;;;;5030654;28;20670;-89
2021/05/27 06:14:42;;;;;;;2.00;1.90;;;11.50;99.90;;;;;;5034369;28;20678;-89
2021/05/27 06:17:09;;;;;;;2.70;2.20;;;11.50;99.90;;;;;;5026570;28;20660;-89
2021/05/27 06:19:35;;;;;;;1.83;1.67;;;11.60;99.90;;;;;;5020566;28;20641;-89
2021/05/27 06:22:03;;;;;;;2.10;1.47;;;11.80;99.90;;;;;;5024615;28;20972;-89
2021/05/27 06:24:30;;;;;;;4.93;1.50;;;11.90;99.90;;;;;;5025795;28;20651;-89
2021/05/27 06:26:58;;;;;;;2.00;1.60;;;11.90;99.90;;;;;;5028128;28;20611;-89
2021/05/27 06:29:26;;;;;;;2.13;1.60;;;11.80;99.90;;;;;;5022814;28;20608;-89
2021/05/27 06:31:55;;;;;;;3.23;1.97;;;12.00;99.90;;;;;;5028830;28;20629;-89
2021/05/27 06:34:25;;;;;;;3.63;2.30;;;12.20;99.90;;;;;;5028204;28;20683;-90
2021/05/27 06:36:58;;;;;;;2.67;2.10;;;12.20;99.90;;;;;;5023513;28;20627;-90
2021/05/27 06:39:33;;;;;;;2.20;1.70;;;12.20;99.90;;;;;;5027989;28;20631;-90
2021/05/27 06:42:02;;;;;;;2.53;1.90;;;12.40;99.90;;;;;;5029197;28;20646;-90
2021/05/27 06:44:30;;;;;;;2.60;1.60;;;12.80;99.90;;;;;;5034020;28;20761;-89
2021/05/27 06:46:57;;;;;;;1.43;0.90;;;12.80;99.90;;;;;;5033136;28;20722;-90
2021/05/27 06:49:31;;;;;;;1.30;1.10;;;12.80;99.90;;;;;;5040366;28;20626;-89
2021/05/27 06:52:05;;;;;;;4.17;1.00;;;12.80;99.90;;;;;;5034468;28;20978;-89
2021/05/27 06:54:32;;;;;;;2.00;1.20;;;12.60;99.90;;;;;;5032605;28;21433;-89
2021/05/27 06:57:00;;;;;;;1.43;0.83;;;13.00;99.90;;;;;;5029539;28;20634;-89
2021/05/27 06:59:27;;;;;;;2.33;1.20;;;13.10;99.90;;;;;;5028018;28;20623;-89
2021/05/27 07:02:05;;;;;;;2.47;1.10;;;13.20;99.90;;;;;;5039969;28;20694;-89
2021/05/27 07:04:32;;;;;;;1.20;1.10;;;13.10;99.90;;;;;;5037755;28;20682;-91
2021/05/27 07:07:01;;;;;;;3.80;1.40;;;13.20;99.90;;;;;;5036405;28;20633;-90
2021/05/27 07:09:28;;;;;;;6.00;1.20;;;13.50;99.90;;;;;;5048369;28;20622;-89
2021/05/27 07:11:56;;;;;;;2.70;1.17;;;13.80;99.90;;;;;;5053362;28;20676;-90
2021/05/27 07:14:25;;;;;;;2.00;1.00;;;13.60;99.90;;;;;;5051651;28;20670;-89
2021/05/27 07:16:51;;;;;;;2.87;1.20;;;13.60;99.90;;;;;;5044338;28;20599;-89
2021/05/27 07:19:20;;;;;;;1.40;1.20;;;13.60;99.90;;;;;;5047306;28;20646;-90
2021/05/27 07:21:47;;;;;;;1.37;1.00;;;13.50;99.90;;;;;;5049167;28;20607;-90
2021/05/27 07:24:20;;;;;;;2.97;1.20;;;13.70;99.90;;;;;;5045951;28;20645;-90
2021/05/27 07:26:47;;;;;;;5.50;3.70;;;13.80;99.90;;;;;;5045353;28;20617;-89
2021/05/27 07:29:14;;;;;;;2.57;1.83;;;14.10;99.90;;;;;;5043739;28;20683;-88
2021/05/27 07:31:41;;;;;;;8.90;5.60;;;13.90;99.90;;;;;;5050701;28;20690;-90
2021/05/27 07:34:07;;;;;;;3.53;2.00;;;13.80;99.90;;;;;;5047953;28;20688;-90
2021/05/27 07:36:36;;;;;;;7.27;2.13;;;14.00;99.90;;;;;;5043511;28;20745;-90
2021/05/27 07:39:04;;;;;;;13.63;2.00;;;14.00;99.90;;;;;;5048199;28;20629;-89
2021/05/27 07:41:32;;;;;;;3.70;1.20;;;13.70;99.90;;;;;;5047327;28;20641;-90
2021/05/27 07:44:01;;;;;;;5.37;1.10;;;13.70;99.90;;;;;;5050562;28;20615;-91
2021/05/27 07:46:29;;;;;;;3.37;1.10;;;13.80;99.90;;;;;;5051357;28;21188;-91
2021/05/27 07:48:56;;;;;;;1.13;0.90;;;13.70;99.90;;;;;;5046118;28;20709;-91
2021/05/27 07:51:22;;;;;;;2.20;1.00;;;13.50;99.90;;;;;;5045737;28;20634;-88
2021/05/27 07:53:50;;;;;;;1.10;1.00;;;13.40;99.90;;;;;;5041233;28;20705;-91
2021/05/27 07:56:17;;;;;;;3.07;1.27;;;13.30;99.90;;;;;;5039679;28;20627;-90
2021/05/27 07:58:43;;;;;;;8.03;1.17;;;13.20;99.90;;;;;;5034626;28;20626;-91
2021/05/27 08:01:14;;;;;;;3.43;0.90;;;13.10;99.90;;;;;;5036586;28;20619;-92
2021/05/27 08:03:40;;;;;;;0.93;0.93;;;13.20;99.90;;;;;;5041027;28;20627;-90
2021/05/27 08:06:09;;;;;;;1.73;1.13;;;13.30;99.90;;;;;;5043372;28;20646;-91
2021/05/27 08:08:36;;;;;;;1.23;0.80;;;13.60;99.90;;;;;;5045084;28;20661;-91
2021/05/27 08:11:03;;;;;;;5.47;1.17;;;14.00;99.90;;;;;;5045150;28;20756;-91
2021/05/27 08:13:30;;;;;;;1.70;1.33;;;14.50;99.90;;;;;;5042907;28;20643;-91
2021/05/27 08:15:56;;;;;;;2.00;1.20;;;14.90;99.90;;;;;;5043204;28;20667;-90
2021/05/27 08:18:23;;;;;;;2.47;1.20;;;14.90;97.60;;;;;;5048011;28;20630;-90
2021/05/27 08:20:51;;;;;;;2.33;1.10;;;14.60;98.20;;;;;;5045009;28;20981;-91
2021/05/27 08:23:17;;;;;;;1.20;1.10;;;14.50;98.10;;;;;;5046807;28;20611;-91
2021/05/27 08:25:44;;;;;;;1.10;1.00;;;14.50;98.20;;;;;;5041133;28;20684;-92
2021/05/27 08:28:15;;;;;;;3.33;1.20;;;14.40;98.90;;;;;;5039573;28;20652;-90
2021/05/27 08:30:42;;;;;;;1.83;0.90;;;14.10;98.90;;;;;;5035886;28;20629;-92
2021/05/27 08:33:12;;;;;;;2.07;0.90;;;13.90;99.20;;;;;;5039570;28;20654;-92
2021/05/27 08:35:38;;;;;;;1.20;0.90;;;13.90;99.80;;;;;;5039795;28;20666;-91
2021/05/27 08:38:05;;;;;;;2.80;1.40;;;14.00;99.60;;;;;;5037281;28;20643;-92
2021/05/27 08:40:34;;;;;;;1.43;1.20;;;14.20;98.90;;;;;;5040224;28;20627;-92
2021/05/27 08:43:03;;;;;;;1.60;1.30;;;14.70;98.30;;;;;;5032805;28;20627;-92
2021/05/27 08:45:36;;;;;;;18.23;2.10;;;15.20;95.70;;;;;;5035186;28;21216;-92
2021/05/27 08:48:05;;;;;;;1.47;1.03;;;15.60;95.90;;;;;;5039913;28;20716;-88
2021/05/27 08:50:41;;;;;;;2.37;1.07;;;15.80;94.90;;;;;;5034962;28;20637;-91
2021/05/27 08:53:08;;;;;;;1.97;1.17;;;15.80;95.00;;;;;;5033575;28;20651;-89
2021/05/27 08:55:41;;;;;;;1.20;1.10;;;16.10;94.80;;;;;;5038979;28;20662;-91
2021/05/27 08:58:08;;;;;;;1.57;1.20;;;15.60;95.50;;;;;;5038981;28;20681;-90
2021/05/27 09:00:37;;;;;;;1.37;1.20;;;15.20;95.90;;;;;;5038124;28;20627;-93
2021/05/27 09:03:13;;;;;;;2.50;0.97;;;15.30;95.40;;;;;;5041556;28;20684;-91
2021/05/27 09:05:46;;;;;;;2.37;0.90;;;15.60;94.50;;;;;;5040898;28;20650;-89
2021/05/27 09:08:28;;;;;;;1.10;0.97;;;16.20;93.20;;;;;;5046782;28;20631;-90
2021/05/27 09:11:00;;;;;;;3.43;1.83;;;16.30;93.30;;;;;;5041569;28;20681;-89
2021/05/27 09:13:26;;;;;;;3.90;1.30;;;16.10;92.70;;;;;;5042983;28;21296;-92
2021/05/27 09:16:05;;;;;;;3.30;1.17;;;16.20;93.20;;;;;;5043064;28;20682;-89
2021/05/27 09:18:36;;;;;;;1.40;0.90;;;16.00;92.70;;;;;;5032805;28;20651;-89
2021/05/27 09:21:05;;;;;;;1.20;0.80;;;15.80;93.20;;;;;;5032952;28;21212;-91
2021/05/27 09:23:34;;;;;;;2.90;2.30;;;15.90;93.70;;;;;;5031555;28;20621;-90
2021/05/27 09:26:08;;;;;;;2.63;1.40;;;15.60;94.10;;;;;;5030753;28;20657;-90
2021/05/27 09:28:36;;;;;;;1.57;1.07;;;15.60;93.80;;;;;;5031567;28;20654;-92
2021/05/27 09:31:07;;;;;;;1.47;0.90;;;15.90;93.30;;;;;;5029837;28;20646;-92
2021/05/27 09:33:36;;;;;;;2.03;0.90;;;16.10;92.40;;;;;;5029257;28;21248;-92
2021/05/27 09:36:06;;;;;;;1.63;1.27;;;16.80;91.00;;;;;;5032477;28;20657;-91
2021/05/27 09:38:35;;;;;;;1.73;1.10;;;16.90;90.80;;;;;;5031651;28;20661;-93
2021/05/27 09:41:20;;;;;;;0.83;0.77;;;16.70;90.90;;;;;;5034038;28;20631;-91
2021/05/27 09:43:52;;;;;;;1.20;0.70;;;16.50;91.10;;;;;;5035450;28;20662;-90
2021/05/27 09:46:21;;;;;;;1.73;1.03;;;16.00;91.80;;;;;;5029491;28;20646;-91
2021/05/27 09:49:04;;;;;;;5.97;1.30;;;15.90;92.60;;;;;;5025359;28;20827;-90
2021/05/27 09:51:30;;;;;;;1.20;0.97;;;15.80;93.10;;;;;;5030246;28;20721;-89
2021/05/27 09:53:57;;;;;;;1.57;0.87;;;15.70;92.90;;;;;;5031307;28;20654;-89
2021/05/27 09:56:34;;;;;;;1.13;0.87;;;15.60;92.70;;;;;;5030628;28;20721;-89
2021/05/27 09:59:01;;;;;;;2.00;0.83;;;15.50;92.50;;;;;;5029820;28;20646;-89
2021/05/27 10:01:30;;;;;;;1.10;1.00;;;15.40;93.30;;;;;;5026666;28;20654;-90
2021/05/27 10:04:11;;;;;;;2.27;0.83;;;15.60;93.80;;;;;;5028432;28;20658;-89
2021/05/27 10:06:49;;;;;;;1.43;0.77;;;15.50;93.80;;;;;;5026700;28;20978;-90
2021/05/27 10:09:19;;;;;;;3.73;1.83;;;15.40;93.80;;;;;;5024823;28;21259;-92
2021/05/27 10:11:52;;;;;;;3.43;1.10;;;15.50;94.20;;;;;;5028515;28;20631;-91
2021/05/27 10:14:21;;;;;;;2.17;1.30;;;15.40;94.00;;;;;;5027386;28;22820;-90
2021/05/27 10:16:50;;;;;;;5.40;1.73;;;15.30;94.50;;;;;;5026234;28;20624;-89
2021/05/27 10:19:19;;;;;;;2.10;0.93;;;15.40;94.30;;;;;;5026654;28;20662;-90
2021/05/27 10:21:46;;;;;;;4.23;2.83;;;15.70;93.90;;;;;;5026608;28;21293;-89
2021/05/27 10:24:12;;;;;;;1.63;1.00;;;16.00;94.00;;;;;;5026505;28;20649;-90
2021/05/27 10:26:43;;;;;;;6.63;0.97;;;16.50;92.80;;;;;;5022927;28;20671;-88
2021/05/27 10:29:10;;;;;;;6.33;0.90;;;16.20;92.70;;;;;;5025845;28;20670;-91
2021/05/27 10:31:45;;;;;;;1.23;0.90;;;15.90;92.90;;;;;;5026136;28;20706;-91
2021/05/27 10:34:42;;;;;;;4.00;1.00;;;15.70;93.30;;;;;;5027865;28;20647;-92
2021/05/27 10:37:09;;;;;;;2.10;0.90;;;15.50;93.00;;;;;;5026286;28;21178;-92
2021/05/27 10:39:37;;;;;;;1.10;1.00;;;15.40;93.30;;;;;;5027404;28;20617;-90
2021/05/27 10:42:03;;;;;;;2.50;1.00;;;15.30;93.40;;;;;;5026146;28;21124;-91
2021/05/27 10:44:30;;;;;;;1.53;0.80;;;15.10;93.70;;;;;;5026257;28;20693;-90
2021/05/27 10:47:18;;;;;;;2.40;1.03;;;15.10;94.70;;;;;;5025593;28;20620;-90
2021/05/27 10:49:57;;;;;;;2.97;1.13;;;14.90;95.20;;;;;;5021348;28;20730;-90
2021/05/27 10:52:38;;;;;;;1.77;1.63;;;14.90;97.90;;;;;;5022451;28;20662;-90
2021/05/27 10:55:07;;;;;;;1.90;1.27;;;14.80;99.20;;;;;;5023053;28;20651;-90
2021/05/27 10:57:49;;;;;;;2.20;1.40;;;14.80;99.00;;;;;;5025805;28;20654;-89
2021/05/27 11:00:49;;;;;;;1.73;1.27;;;14.70;97.80;;;;;;5025470;28;20646;-92
2021/05/27 11:03:48;;;;;;;1.73;1.00;;;14.70;98.10;;;;;;5027583;28;20642;-91
2021/05/27 11:06:19;;;;;;;1.97;1.50;;;14.80;98.40;;;;;;5019501;28;20618;-89
2021/05/27 11:08:46;;;;;;;1.50;1.20;;;15.00;98.20;;;;;;5021671;28;20653;-91
2021/05/27 11:11:41;;;;;;;14.83;3.93;;;15.20;98.50;;;;;;5026597;28;20701;-89
2021/05/27 11:14:19;;;;;;;2.27;1.57;;;15.30;97.70;;;;;;5012116;28;20673;-90
2021/05/27 11:17:21;;;;;;;1.63;1.03;;;15.40;97.60;;;;;;5020542;28;21216;-89
2021/05/27 11:19:52;;;;;;;1.47;1.27;;;15.40;96.60;;;;;;5018208;28;20643;-90
2021/05/27 11:25:35;;;;;;;3.73;1.20;;;15.80;96.50;;;;;;5023483;28;20635;-91
2021/05/27 11:28:25;;;;;;;3.17;1.33;;;15.80;95.70;;;;;;5023364;28;20685;-90
2021/05/27 11:30:57;;;;;;;2.87;1.30;;;15.70;95.70;;;;;;5022744;28;21470;-89
2021/05/27 11:33:32;;;;;;;2.53;1.23;;;16.10;95.60;;;;;;5028342;28;21377;-87
2021/05/27 11:36:05;;;;;;;2.13;1.43;;;16.90;94.10;;;;;;5027098;28;20623;-89
2021/05/27 11:38:35;;;;;;;1.07;0.87;;;17.70;92.80;;;;;;5028640;28;20641;-90
2021/05/27 11:41:06;;;;;;;1.47;1.30;;;17.80;92.00;;;;;;5028576;28;21242;-88
2021/05/27 11:43:36;;;;;;;1.80;0.87;;;17.70;91.20;;;;;;5027473;28;20745;-87
2021/05/27 11:46:06;;;;;;;1.83;1.30;;;17.50;91.10;;;;;;5027297;28;20641;-88
2021/05/27 11:48:37;;;;;;;1.20;1.10;;;17.40;91.60;;;;;;5028072;28;20666;-89
2021/05/27 11:51:08;;;;;;;1.77;1.20;;;17.10;92.90;;;;;;5032313;28;20598;-90
2021/05/27 11:53:47;;;;;;;4.53;2.43;;;17.20;92.20;;;;;;5025906;28;20658;-90
2021/05/27 11:56:14;;;;;;;5.70;1.47;;;17.00;93.80;;;;;;5029053;28;20654;-89
2021/05/27 11:58:43;;;;;;;4.47;2.83;;;17.10;93.20;;;;;;5028151;28;20632;-91
2021/05/27 12:01:21;;;;;;;5.00;4.53;;;18.10;91.70;;;;;;5031307;28;21199;-91
2021/05/27 12:04:06;;;;;;;0.93;0.90;;;18.70;90.20;;;;;;5030703;28;20731;-92
2021/05/27 12:06:57;;;;;;;1.90;1.20;;;18.50;86.10;;;;;;5020948;28;20634;-91
2021/05/27 12:09:39;;;;;;;1.77;1.13;;;18.20;87.00;;;;;;5028808;28;20627;-91
2021/05/27 12:12:19;;;;;;;1.37;1.20;;;17.90;87.20;;;;;;5035744;28;20618;-89
2021/05/27 12:14:52;;;;;;;2.23;1.20;;;17.40;90.30;;;;;;5040834;28;20751;-91
2021/05/27 12:17:29;;;;;;;1.43;1.30;;;17.10;91.70;;;;;;5033922;28;20654;-91
2021/05/27 12:20:04;;;;;;;3.60;0.90;;;16.90;91.70;;;;;;5029653;28;20700;-90
2021/05/27 12:22:52;;;;;;;1.73;1.30;;;16.70;92.00;;;;;;5046081;28;20616;-90
2021/05/27 12:25:21;;;;;;;1.80;1.30;;;16.70;93.00;;;;;;5048238;28;20661;-90
2021/05/27 12:27:51;;;;;;;2.77;1.47;;;16.70;91.70;;;;;;5034342;28;20650;-87
2021/05/27 12:30:20;;;;;;;2.27;1.33;;;16.60;92.40;;;;;;5031744;28;21263;-88
2021/05/27 12:32:48;;;;;;;1.23;1.13;;;16.80;92.20;;;;;;5030929;28;20634;-88
2021/05/27 12:35:20;;;;;;;1.27;1.17;;;16.70;92.30;;;;;;5028138;28;21113;-88
2021/05/27 12:37:48;;;;;;;1.50;0.93;;;17.00;91.50;;;;;;5034116;28;20654;-87
2021/05/27 12:40:24;;;;;;;1.20;0.80;;;17.40;90.90;;;;;;5035214;28;21671;-88
2021/05/27 12:42:51;;;;;;;1.53;0.90;;;18.10;88.60;;;;;;5031676;28;21282;-89
2021/05/27 12:45:29;;;;;;;1.77;1.13;;;18.20;87.50;;;;;;5026950;28;20606;-89
2021/05/27 12:48:07;;;;;;;2.60;1.30;;;18.20;87.40;;;;;;5026643;28;20682;-87
2021/05/27 12:50:34;;;;;;;2.20;1.00;;;17.90;87.50;;;;;;5025223;28;20709;-88
2021/05/27 12:53:03;;;;;;;2.60;1.30;;;17.80;88.50;;;;;;5027317;28;20643;-89
2021/05/27 12:55:34;;;;;;;4.20;0.93;;;17.50;88.50;;;;;;5026992;28;20658;-88
2021/05/27 12:58:04;;;;;;;3.00;1.10;;;17.40;90.90;;;;;;5025839;28;21275;-90
2021/05/27 13:00:45;;;;;;;1.33;1.17;;;17.50;90.60;;;;;;5022975;28;20614;-88
2021/05/27 13:03:12;;;;;;;1.93;1.20;;;17.40;91.80;;;;;;5022141;28;20677;-90
2021/05/27 13:05:40;;;;;;;3.07;1.17;;;17.20;90.70;;;;;;5021985;28;20623;-89
2021/05/27 13:08:07;;;;;;;1.57;1.37;;;17.10;89.10;;;;;;5019940;28;20674;-89
2021/05/27 13:10:37;;;;;;;1.80;0.90;;;17.10;88.50;;;;;;5024080;28;20657;-88
2021/05/27 13:13:08;;;;;;;1.70;0.87;;;17.00;89.60;;;;;;5023486;28;20623;-88